sensor_id;sensor_type;location;lat;lon;timestamp;P1;durP1;ratioP1;P2;durP2;ratioP2
19006;SDS011;9636;47.382;8.480;2022-12-04T00:01:34;10.47;;;6.67;;
19006;SDS011;9636;47.382;8.480;2022-12-04T00:04:01;11.63;;;7.47;;
19006;SDS011;9636;47.382;8.480;2022-12-04T00:06:28;10.50;;;7.10;;
19006;SDS011;9636;47.382;8.480;2022-12-04T00:08:55;12.27;;;7.40;;
19006;SDS011;9636;47.382;8.480;2022-12-04T00:11:25;10.00;;;6.43;;
19006;SDS011;9636;47.382;8.480;2022-12-04T00:13:52;11.27;;;7.00;;
19006;SDS011;9636;47.382;8.480;2022-12-04T00:16:20;11.73;;;6.90;;
19006;SDS011;9636;47.382;8.480;2022-12-04T00:18:48;11.63;;;7.40;;
19006;SDS011;9636;47.382;8.480;2022-12-04T00:21:16;12.77;;;6.90;;
19006;SDS011;9636;47.382;8.480;2022-12-04T00:23:43;11.40;;;7.30;;
19006;SDS011;9636;47.382;8.480;2022-12-04T00:26:11;10.83;;;7.00;;
19006;SDS011;9636;47.382;8.480;2022-12-04T00:28:40;12.90;;;7.80;;
19006;SDS011;9636;47.382;8.480;2022-12-04T00:31:08;11.30;;;6.80;;
19006;SDS011;9636;47.382;8.480;2022-12-04T00:33:36;10.57;;;6.97;;
19006;SDS011;9636;47.382;8.480;2022-12-04T00:36:04;10.73;;;7.07;;
19006;SDS011;9636;47.382;8.480;2022-12-04T00:38:31;12.13;;;6.83;;
19006;SDS011;9636;47.382;8.480;2022-12-04T00:40:58;11.00;;;6.57;;
19006;SDS011;9636;47.382;8.480;2022-12-04T00:43:26;11.03;;;6.67;;
19006;SDS011;9636;47.382;8.480;2022-12-04T00:45:54;9.70;;;6.80;;
19006;SDS011;9636;47.382;8.480;2022-12-04T00:48:22;9.67;;;6.50;;
19006;SDS011;9636;47.382;8.480;2022-12-04T00:50:49;10.80;;;6.90;;
19006;SDS011;9636;47.382;8.480;2022-12-04T00:53:18;12.07;;;7.00;;
19006;SDS011;9636;47.382;8.480;2022-12-04T00:55:45;13.00;;;6.93;;
19006;SDS011;9636;47.382;8.480;2022-12-04T00:58:12;10.47;;;6.83;;
19006;SDS011;9636;47.382;8.480;2022-12-04T01:00:40;11.03;;;6.70;;
19006;SDS011;9636;47.382;8.480;2022-12-04T01:03:09;10.73;;;7.23;;
19006;SDS011;9636;47.382;8.480;2022-12-04T01:05:39;12.17;;;7.00;;
19006;SDS011;9636;47.382;8.480;2022-12-04T01:08:07;13.43;;;6.87;;
19006;SDS011;9636;47.382;8.480;2022-12-04T01:10:34;11.40;;;6.77;;
19006;SDS011;9636;47.382;8.480;2022-12-04T01:13:03;9.93;;;6.77;;
19006;SDS011;9636;47.382;8.480;2022-12-04T01:15:30;12.90;;;6.97;;
19006;SDS011;9636;47.382;8.480;2022-12-04T01:17:57;10.43;;;6.93;;
19006;SDS011;9636;47.382;8.480;2022-12-04T01:20:26;10.67;;;7.00;;
19006;SDS011;9636;47.382;8.480;2022-12-04T01:22:53;11.23;;;6.80;;
19006;SDS011;9636;47.382;8.480;2022-12-04T01:25:20;11.67;;;6.90;;
19006;SDS011;9636;47.382;8.480;2022-12-04T01:27:47;10.33;;;6.10;;
19006;SDS011;9636;47.382;8.480;2022-12-04T01:30:15;12.33;;;7.43;;
19006;SDS011;9636;47.382;8.480;2022-12-04T01:32:42;9.97;;;6.50;;
19006;SDS011;9636;47.382;8.480;2022-12-04T01:35:09;10.97;;;7.20;;
19006;SDS011;9636;47.382;8.480;2022-12-04T01:37:37;8.90;;;6.50;;
19006;SDS011;9636;47.382;8.480;2022-12-04T01:40:05;10.97;;;6.50;;
19006;SDS011;9636;47.382;8.480;2022-12-04T01:42:32;11.30;;;6.57;;
19006;SDS011;9636;47.382;8.480;2022-12-04T01:47:45;12.43;;;7.37;;
19006;SDS011;9636;47.382;8.480;2022-12-04T01:50:12;11.43;;;6.77;;
19006;SDS011;9636;47.382;8.480;2022-12-04T01:52:41;10.93;;;6.93;;
19006;SDS011;9636;47.382;8.480;2022-12-04T01:55:08;10.23;;;6.60;;
19006;SDS011;9636;47.382;8.480;2022-12-04T01:57:35;9.53;;;6.40;;
19006;SDS011;9636;47.382;8.480;2022-12-04T02:00:04;11.43;;;7.00;;
19006;SDS011;9636;47.382;8.480;2022-12-04T02:02:33;11.33;;;6.90;;
19006;SDS011;9636;47.382;8.480;2022-12-04T02:05:01;10.27;;;6.30;;
19006;SDS011;9636;47.382;8.480;2022-12-04T02:07:29;10.77;;;7.03;;
19006;SDS011;9636;47.382;8.480;2022-12-04T02:09:58;9.90;;;6.43;;
19006;SDS011;9636;47.382;8.480;2022-12-04T02:12:31;10.27;;;6.87;;
19006;SDS011;9636;47.382;8.480;2022-12-04T02:15:03;9.27;;;6.83;;
19006;SDS011;9636;47.382;8.480;2022-12-04T02:17:34;11.70;;;6.67;;
19006;SDS011;9636;47.382;8.480;2022-12-04T02:20:06;11.13;;;7.20;;
19006;SDS011;9636;47.382;8.480;2022-12-04T02:22:40;10.70;;;6.60;;
19006;SDS011;9636;47.382;8.480;2022-12-04T02:25:14;12.53;;;7.40;;
19006;SDS011;9636;47.382;8.480;2022-12-04T02:27:52;10.23;;;6.27;;
19006;SDS011;9636;47.382;8.480;2022-12-04T02:30:24;11.10;;;6.90;;
19006;SDS011;9636;47.382;8.480;2022-12-04T02:32:54;13.17;;;7.10;;
19006;SDS011;9636;47.382;8.480;2022-12-04T02:35:24;10.23;;;6.73;;
19006;SDS011;9636;47.382;8.480;2022-12-04T02:37:53;10.10;;;6.70;;
19006;SDS011;9636;47.382;8.480;2022-12-04T02:40:22;10.53;;;6.53;;
19006;SDS011;9636;47.382;8.480;2022-12-04T02:42:54;10.53;;;6.33;;
19006;SDS011;9636;47.382;8.480;2022-12-04T02:45:24;11.77;;;6.93;;
19006;SDS011;9636;47.382;8.480;2022-12-04T02:47:53;12.43;;;6.40;;
19006;SDS011;9636;47.382;8.480;2022-12-04T02:50:21;10.67;;;6.40;;
19006;SDS011;9636;47.382;8.480;2022-12-04T02:52:49;12.17;;;7.23;;
19006;SDS011;9636;47.382;8.480;2022-12-04T02:55:19;11.03;;;6.97;;
19006;SDS011;9636;47.382;8.480;2022-12-04T02:57:48;12.53;;;7.10;;
19006;SDS011;9636;47.382;8.480;2022-12-04T03:00:18;11.30;;;7.10;;
19006;SDS011;9636;47.382;8.480;2022-12-04T03:02:46;12.07;;;7.07;;
19006;SDS011;9636;47.382;8.480;2022-12-04T03:05:15;11.27;;;6.30;;
19006;SDS011;9636;47.382;8.480;2022-12-04T03:07:46;11.23;;;6.90;;
19006;SDS011;9636;47.382;8.480;2022-12-04T03:10:15;10.73;;;7.03;;
19006;SDS011;9636;47.382;8.480;2022-12-04T03:12:43;9.97;;;6.23;;
19006;SDS011;9636;47.382;8.480;2022-12-04T03:15:14;11.83;;;7.07;;
19006;SDS011;9636;47.382;8.480;2022-12-04T03:17:46;8.77;;;6.40;;
19006;SDS011;9636;47.382;8.480;2022-12-04T03:20:16;11.20;;;7.03;;
19006;SDS011;9636;47.382;8.480;2022-12-04T03:22:43;9.73;;;6.43;;
19006;SDS011;9636;47.382;8.480;2022-12-04T03:25:12;9.77;;;6.27;;
19006;SDS011;9636;47.382;8.480;2022-12-04T03:27:41;10.90;;;6.17;;
19006;SDS011;9636;47.382;8.480;2022-12-04T03:30:11;8.83;;;6.00;;
19006;SDS011;9636;47.382;8.480;2022-12-04T03:32:42;11.47;;;7.00;;
19006;SDS011;9636;47.382;8.480;2022-12-04T03:35:12;9.83;;;6.33;;
19006;SDS011;9636;47.382;8.480;2022-12-04T03:37:43;10.17;;;6.40;;
19006;SDS011;9636;47.382;8.480;2022-12-04T03:40:14;9.90;;;6.30;;
19006;SDS011;9636;47.382;8.480;2022-12-04T03:42:43;9.43;;;6.47;;
19006;SDS011;9636;47.382;8.480;2022-12-04T03:45:14;9.83;;;6.07;;
19006;SDS011;9636;47.382;8.480;2022-12-04T03:47:45;10.73;;;6.70;;
19006;SDS011;9636;47.382;8.480;2022-12-04T03:50:17;10.33;;;6.60;;
19006;SDS011;9636;47.382;8.480;2022-12-04T03:52:47;9.53;;;6.03;;
19006;SDS011;9636;47.382;8.480;2022-12-04T03:55:18;9.13;;;6.00;;
19006;SDS011;9636;47.382;8.480;2022-12-04T03:57:48;10.53;;;6.73;;
19006;SDS011;9636;47.382;8.480;2022-12-04T04:00:17;8.93;;;5.97;;
19006;SDS011;9636;47.382;8.480;2022-12-04T04:02:45;12.30;;;6.73;;
19006;SDS011;9636;47.382;8.480;2022-12-04T04:05:14;10.33;;;6.60;;
19006;SDS011;9636;47.382;8.480;2022-12-04T04:07:44;11.63;;;7.20;;
19006;SDS011;9636;47.382;8.480;2022-12-04T04:10:13;9.23;;;6.03;;
19006;SDS011;9636;47.382;8.480;2022-12-04T04:12:42;11.33;;;6.60;;
19006;SDS011;9636;47.382;8.480;2022-12-04T04:15:11;10.30;;;6.30;;
19006;SDS011;9636;47.382;8.480;2022-12-04T04:17:57;10.20;;;6.10;;
19006;SDS011;9636;47.382;8.480;2022-12-04T04:20:42;8.47;;;5.93;;
19006;SDS011;9636;47.382;8.480;2022-12-04T04:23:30;10.93;;;6.40;;
19006;SDS011;9636;47.382;8.480;2022-12-04T04:26:18;10.57;;;6.83;;
19006;SDS011;9636;47.382;8.480;2022-12-04T04:28:46;10.50;;;6.70;;
19006;SDS011;9636;47.382;8.480;2022-12-04T04:31:16;9.60;;;6.10;;
19006;SDS011;9636;47.382;8.480;2022-12-04T04:33:46;9.93;;;6.13;;
19006;SDS011;9636;47.382;8.480;2022-12-04T04:36:15;10.03;;;6.27;;
19006;SDS011;9636;47.382;8.480;2022-12-04T04:38:46;11.03;;;6.73;;
19006;SDS011;9636;47.382;8.480;2022-12-04T04:41:17;10.93;;;6.67;;
19006;SDS011;9636;47.382;8.480;2022-12-04T04:43:46;9.73;;;6.17;;
19006;SDS011;9636;47.382;8.480;2022-12-04T04:46:17;9.87;;;6.30;;
19006;SDS011;9636;47.382;8.480;2022-12-04T04:48:46;9.10;;;6.40;;
19006;SDS011;9636;47.382;8.480;2022-12-04T04:51:14;11.03;;;6.57;;
19006;SDS011;9636;47.382;8.480;2022-12-04T04:53:43;10.03;;;6.10;;
19006;SDS011;9636;47.382;8.480;2022-12-04T04:56:12;10.53;;;6.53;;
19006;SDS011;9636;47.382;8.480;2022-12-04T04:58:40;9.63;;;6.10;;
19006;SDS011;9636;47.382;8.480;2022-12-04T05:01:08;11.17;;;6.37;;
19006;SDS011;9636;47.382;8.480;2022-12-04T05:03:36;10.87;;;6.67;;
19006;SDS011;9636;47.382;8.480;2022-12-04T05:06:04;10.27;;;6.30;;
19006;SDS011;9636;47.382;8.480;2022-12-04T05:08:31;10.07;;;6.63;;
19006;SDS011;9636;47.382;8.480;2022-12-04T05:10:58;9.07;;;6.17;;
19006;SDS011;9636;47.382;8.480;2022-12-04T05:13:27;10.77;;;6.40;;
19006;SDS011;9636;47.382;8.480;2022-12-04T05:15:55;9.90;;;6.37;;
19006;SDS011;9636;47.382;8.480;2022-12-04T05:18:22;11.10;;;6.37;;
19006;SDS011;9636;47.382;8.480;2022-12-04T05:20:49;9.67;;;6.33;;
19006;SDS011;9636;47.382;8.480;2022-12-04T05:23:15;10.90;;;6.30;;
19006;SDS011;9636;47.382;8.480;2022-12-04T05:25:43;10.67;;;6.43;;
19006;SDS011;9636;47.382;8.480;2022-12-04T05:28:10;10.10;;;6.43;;
19006;SDS011;9636;47.382;8.480;2022-12-04T05:30:38;9.13;;;6.00;;
19006;SDS011;9636;47.382;8.480;2022-12-04T05:33:05;10.57;;;6.43;;
19006;SDS011;9636;47.382;8.480;2022-12-04T05:35:32;9.77;;;6.40;;
19006;SDS011;9636;47.382;8.480;2022-12-04T05:38:00;9.40;;;6.50;;
19006;SDS011;9636;47.382;8.480;2022-12-04T05:40:27;10.13;;;6.63;;
19006;SDS011;9636;47.382;8.480;2022-12-04T05:42:54;8.53;;;5.93;;
19006;SDS011;9636;47.382;8.480;2022-12-04T05:45:21;9.27;;;6.03;;
19006;SDS011;9636;47.382;8.480;2022-12-04T05:47:49;10.40;;;6.17;;
19006;SDS011;9636;47.382;8.480;2022-12-04T05:50:17;9.50;;;6.03;;
19006;SDS011;9636;47.382;8.480;2022-12-04T05:52:44;10.50;;;6.43;;
19006;SDS011;9636;47.382;8.480;2022-12-04T05:55:11;9.40;;;5.83;;
19006;SDS011;9636;47.382;8.480;2022-12-04T05:57:38;9.17;;;6.00;;
19006;SDS011;9636;47.382;8.480;2022-12-04T06:00:06;10.13;;;5.87;;
19006;SDS011;9636;47.382;8.480;2022-12-04T06:02:33;10.27;;;6.20;;
19006;SDS011;9636;47.382;8.480;2022-12-04T06:05:02;10.57;;;6.60;;
19006;SDS011;9636;47.382;8.480;2022-12-04T06:07:29;10.83;;;6.63;;
19006;SDS011;9636;47.382;8.480;2022-12-04T06:09:56;10.47;;;6.40;;
19006;SDS011;9636;47.382;8.480;2022-12-04T06:12:24;10.67;;;6.30;;
19006;SDS011;9636;47.382;8.480;2022-12-04T06:14:51;9.27;;;6.03;;
19006;SDS011;9636;47.382;8.480;2022-12-04T06:17:18;11.20;;;6.90;;
19006;SDS011;9636;47.382;8.480;2022-12-04T06:19:45;8.40;;;5.63;;
19006;SDS011;9636;47.382;8.480;2022-12-04T06:22:13;10.17;;;6.23;;
19006;SDS011;9636;47.382;8.480;2022-12-04T06:24:41;10.37;;;6.47;;
19006;SDS011;9636;47.382;8.480;2022-12-04T06:27:08;9.83;;;5.93;;
19006;SDS011;9636;47.382;8.480;2022-12-04T06:29:35;9.03;;;6.03;;
19006;SDS011;9636;47.382;8.480;2022-12-04T06:32:02;9.97;;;6.50;;
19006;SDS011;9636;47.382;8.480;2022-12-04T06:34:29;10.43;;;6.53;;
19006;SDS011;9636;47.382;8.480;2022-12-04T06:36:56;8.23;;;5.87;;
19006;SDS011;9636;47.382;8.480;2022-12-04T06:39:25;10.20;;;6.23;;
19006;SDS011;9636;47.382;8.480;2022-12-04T06:41:52;9.23;;;5.90;;
19006;SDS011;9636;47.382;8.480;2022-12-04T06:44:19;9.77;;;6.37;;
19006;SDS011;9636;47.382;8.480;2022-12-04T06:46:47;8.50;;;6.00;;
19006;SDS011;9636;47.382;8.480;2022-12-04T06:49:14;9.57;;;5.97;;
19006;SDS011;9636;47.382;8.480;2022-12-04T06:51:43;9.03;;;6.30;;
19006;SDS011;9636;47.382;8.480;2022-12-04T06:54:10;8.93;;;5.77;;
19006;SDS011;9636;47.382;8.480;2022-12-04T06:56:39;7.83;;;5.60;;
19006;SDS011;9636;47.382;8.480;2022-12-04T06:59:06;8.50;;;5.77;;
19006;SDS011;9636;47.382;8.480;2022-12-04T07:01:33;9.27;;;6.03;;
19006;SDS011;9636;47.382;8.480;2022-12-04T07:04:00;10.97;;;6.40;;
19006;SDS011;9636;47.382;8.480;2022-12-04T07:06:29;7.97;;;5.80;;
19006;SDS011;9636;47.382;8.480;2022-12-04T07:08:57;8.73;;;5.70;;
19006;SDS011;9636;47.382;8.480;2022-12-04T07:11:24;9.47;;;6.37;;
19006;SDS011;9636;47.382;8.480;2022-12-04T07:13:53;8.30;;;5.73;;
19006;SDS011;9636;47.382;8.480;2022-12-04T07:16:21;7.70;;;5.63;;
19006;SDS011;9636;47.382;8.480;2022-12-04T07:18:49;8.40;;;6.17;;
19006;SDS011;9636;47.382;8.480;2022-12-04T07:21:18;10.03;;;6.17;;
19006;SDS011;9636;47.382;8.480;2022-12-04T07:23:47;9.80;;;6.10;;
19006;SDS011;9636;47.382;8.480;2022-12-04T07:26:15;9.00;;;6.30;;
19006;SDS011;9636;47.382;8.480;2022-12-04T07:28:42;8.70;;;6.20;;
19006;SDS011;9636;47.382;8.480;2022-12-04T07:31:11;7.60;;;5.37;;
19006;SDS011;9636;47.382;8.480;2022-12-04T07:33:38;8.90;;;5.67;;
19006;SDS011;9636;47.382;8.480;2022-12-04T07:36:07;8.53;;;5.90;;
19006;SDS011;9636;47.382;8.480;2022-12-04T07:38:34;8.23;;;5.30;;
19006;SDS011;9636;47.382;8.480;2022-12-04T07:41:02;8.77;;;5.73;;
19006;SDS011;9636;47.382;8.480;2022-12-04T07:43:30;7.47;;;5.57;;
19006;SDS011;9636;47.382;8.480;2022-12-04T07:45:57;8.07;;;5.40;;
19006;SDS011;9636;47.382;8.480;2022-12-04T07:48:25;9.00;;;5.60;;
19006;SDS011;9636;47.382;8.480;2022-12-04T07:51:01;7.27;;;5.00;;
19006;SDS011;9636;47.382;8.480;2022-12-04T07:53:28;7.63;;;5.37;;
19006;SDS011;9636;47.382;8.480;2022-12-04T07:55:55;7.00;;;4.90;;
19006;SDS011;9636;47.382;8.480;2022-12-04T07:58:23;6.97;;;5.20;;
19006;SDS011;9636;47.382;8.480;2022-12-04T08:00:50;6.00;;;5.07;;
19006;SDS011;9636;47.382;8.480;2022-12-04T08:03:17;6.07;;;4.80;;
19006;SDS011;9636;47.382;8.480;2022-12-04T08:05:46;8.23;;;5.20;;
19006;SDS011;9636;47.382;8.480;2022-12-04T08:08:13;8.17;;;5.50;;
19006;SDS011;9636;47.382;8.480;2022-12-04T08:10:40;6.50;;;4.83;;
19006;SDS011;9636;47.382;8.480;2022-12-04T08:13:07;6.97;;;4.90;;
19006;SDS011;9636;47.382;8.480;2022-12-04T08:15:34;6.93;;;5.00;;
19006;SDS011;9636;47.382;8.480;2022-12-04T08:18:01;7.50;;;4.60;;
19006;SDS011;9636;47.382;8.480;2022-12-04T08:20:28;7.30;;;4.77;;
19006;SDS011;9636;47.382;8.480;2022-12-04T08:22:57;6.80;;;4.67;;
19006;SDS011;9636;47.382;8.480;2022-12-04T08:25:24;8.33;;;4.93;;
19006;SDS011;9636;47.382;8.480;2022-12-04T08:27:51;7.10;;;4.57;;
19006;SDS011;9636;47.382;8.480;2022-12-04T08:30:18;7.10;;;5.00;;
19006;SDS011;9636;47.382;8.480;2022-12-04T08:32:46;6.83;;;4.63;;
19006;SDS011;9636;47.382;8.480;2022-12-04T08:35:13;6.63;;;4.70;;
19006;SDS011;9636;47.382;8.480;2022-12-04T08:37:40;6.23;;;4.70;;
19006;SDS011;9636;47.382;8.480;2022-12-04T08:40:09;5.57;;;4.50;;
19006;SDS011;9636;47.382;8.480;2022-12-04T08:42:36;5.30;;;4.23;;
19006;SDS011;9636;47.382;8.480;2022-12-04T08:45:04;5.93;;;4.47;;
19006;SDS011;9636;47.382;8.480;2022-12-04T08:47:31;6.40;;;4.37;;
19006;SDS011;9636;47.382;8.480;2022-12-04T08:49:58;7.53;;;4.90;;
19006;SDS011;9636;47.382;8.480;2022-12-04T08:52:26;6.83;;;4.77;;
19006;SDS011;9636;47.382;8.480;2022-12-04T08:54:53;6.17;;;4.30;;
19006;SDS011;9636;47.382;8.480;2022-12-04T08:57:21;7.10;;;4.50;;
19006;SDS011;9636;47.382;8.480;2022-12-04T08:59:48;5.80;;;4.27;;
19006;SDS011;9636;47.382;8.480;2022-12-04T09:02:15;6.60;;;4.30;;
19006;SDS011;9636;47.382;8.480;2022-12-04T09:04:43;6.17;;;4.60;;
19006;SDS011;9636;47.382;8.480;2022-12-04T09:07:10;6.13;;;4.60;;
19006;SDS011;9636;47.382;8.480;2022-12-04T09:09:37;5.87;;;4.20;;
19006;SDS011;9636;47.382;8.480;2022-12-04T09:12:04;5.77;;;4.30;;
19006;SDS011;9636;47.382;8.480;2022-12-04T09:14:32;6.07;;;4.20;;
19006;SDS011;9636;47.382;8.480;2022-12-04T09:17:00;5.23;;;4.27;;
19006;SDS011;9636;47.382;8.480;2022-12-04T09:19:27;6.80;;;4.70;;
19006;SDS011;9636;47.382;8.480;2022-12-04T09:21:56;6.10;;;4.83;;
19006;SDS011;9636;47.382;8.480;2022-12-04T09:24:23;6.07;;;4.50;;
19006;SDS011;9636;47.382;8.480;2022-12-04T09:26:50;6.03;;;4.47;;
19006;SDS011;9636;47.382;8.480;2022-12-04T09:29:17;5.80;;;4.57;;
19006;SDS011;9636;47.382;8.480;2022-12-04T09:31:46;5.13;;;4.00;;
19006;SDS011;9636;47.382;8.480;2022-12-04T09:34:13;5.67;;;4.20;;
19006;SDS011;9636;47.382;8.480;2022-12-04T09:36:40;5.43;;;4.33;;
19006;SDS011;9636;47.382;8.480;2022-12-04T09:39:08;4.80;;;4.10;;
19006;SDS011;9636;47.382;8.480;2022-12-04T09:41:46;6.73;;;4.63;;
19006;SDS011;9636;47.382;8.480;2022-12-04T09:44:15;5.27;;;4.40;;
19006;SDS011;9636;47.382;8.480;2022-12-04T09:46:46;5.60;;;3.97;;
19006;SDS011;9636;47.382;8.480;2022-12-04T09:49:16;6.03;;;4.50;;
19006;SDS011;9636;47.382;8.480;2022-12-04T09:51:45;5.30;;;4.40;;
19006;SDS011;9636;47.382;8.480;2022-12-04T09:54:13;6.90;;;4.50;;
19006;SDS011;9636;47.382;8.480;2022-12-04T09:56:42;6.17;;;4.33;;
19006;SDS011;9636;47.382;8.480;2022-12-04T09:59:10;5.90;;;4.33;;
19006;SDS011;9636;47.382;8.480;2022-12-04T10:01:41;5.63;;;4.37;;
19006;SDS011;9636;47.382;8.480;2022-12-04T10:04:11;6.13;;;4.30;;
19006;SDS011;9636;47.382;8.480;2022-12-04T10:06:39;6.23;;;4.47;;
19006;SDS011;9636;47.382;8.480;2022-12-04T10:09:09;6.47;;;4.57;;
19006;SDS011;9636;47.382;8.480;2022-12-04T10:11:38;6.33;;;4.43;;
19006;SDS011;9636;47.382;8.480;2022-12-04T10:14:12;5.77;;;4.53;;
19006;SDS011;9636;47.382;8.480;2022-12-04T10:19:24;5.83;;;4.40;;
19006;SDS011;9636;47.382;8.480;2022-12-04T10:21:57;5.60;;;4.40;;
19006;SDS011;9636;47.382;8.480;2022-12-04T10:24:30;6.53;;;4.90;;
19006;SDS011;9636;47.382;8.480;2022-12-04T10:27:00;6.73;;;4.80;;
19006;SDS011;9636;47.382;8.480;2022-12-04T10:29:31;5.97;;;4.30;;
19006;SDS011;9636;47.382;8.480;2022-12-04T10:32:01;6.83;;;5.00;;
19006;SDS011;9636;47.382;8.480;2022-12-04T10:34:31;5.60;;;4.43;;
19006;SDS011;9636;47.382;8.480;2022-12-04T10:36:59;5.70;;;4.30;;
19006;SDS011;9636;47.382;8.480;2022-12-04T10:39:28;5.07;;;4.17;;
19006;SDS011;9636;47.382;8.480;2022-12-04T10:42:00;6.13;;;4.20;;
19006;SDS011;9636;47.382;8.480;2022-12-04T10:44:27;6.63;;;4.43;;
19006;SDS011;9636;47.382;8.480;2022-12-04T10:47:00;6.47;;;4.43;;
19006;SDS011;9636;47.382;8.480;2022-12-04T10:49:29;11.00;;;6.80;;
19006;SDS011;9636;47.382;8.480;2022-12-04T10:51:57;14.27;;;8.00;;
19006;SDS011;9636;47.382;8.480;2022-12-04T10:54:26;15.00;;;8.30;;
19006;SDS011;9636;47.382;8.480;2022-12-04T10:56:56;14.10;;;8.33;;
19006;SDS011;9636;47.382;8.480;2022-12-04T10:59:24;15.20;;;8.80;;
19006;SDS011;9636;47.382;8.480;2022-12-04T11:01:51;24.63;;;11.07;;
19006;SDS011;9636;47.382;8.480;2022-12-04T11:04:25;37.70;;;17.97;;
19006;SDS011;9636;47.382;8.480;2022-12-04T11:06:59;33.17;;;16.47;;
19006;SDS011;9636;47.382;8.480;2022-12-04T11:09:27;37.20;;;17.30;;
19006;SDS011;9636;47.382;8.480;2022-12-04T11:12:03;35.33;;;16.10;;
19006;SDS011;9636;47.382;8.480;2022-12-04T11:14:31;35.07;;;17.67;;
19006;SDS011;9636;47.382;8.480;2022-12-04T11:16:59;32.37;;;16.70;;
19006;SDS011;9636;47.382;8.480;2022-12-04T11:19:27;34.53;;;17.53;;
19006;SDS011;9636;47.382;8.480;2022-12-04T11:21:55;34.67;;;17.63;;
19006;SDS011;9636;47.382;8.480;2022-12-04T11:24:25;36.93;;;17.23;;
19006;SDS011;9636;47.382;8.480;2022-12-04T11:26:55;35.20;;;17.23;;
19006;SDS011;9636;47.382;8.480;2022-12-04T11:29:25;36.03;;;16.00;;
19006;SDS011;9636;47.382;8.480;2022-12-04T11:31:54;34.80;;;16.90;;
19006;SDS011;9636;47.382;8.480;2022-12-04T11:34:23;29.97;;;15.87;;
19006;SDS011;9636;47.382;8.480;2022-12-04T11:36:51;32.13;;;15.93;;
19006;SDS011;9636;47.382;8.480;2022-12-04T11:39:22;33.13;;;15.33;;
19006;SDS011;9636;47.382;8.480;2022-12-04T11:41:58;32.43;;;15.87;;
19006;SDS011;9636;47.382;8.480;2022-12-04T11:44:27;30.47;;;15.80;;
19006;SDS011;9636;47.382;8.480;2022-12-04T11:46:55;29.13;;;15.43;;
19006;SDS011;9636;47.382;8.480;2022-12-04T11:49:23;30.93;;;14.83;;
19006;SDS011;9636;47.382;8.480;2022-12-04T11:51:52;29.80;;;15.53;;
19006;SDS011;9636;47.382;8.480;2022-12-04T11:54:24;31.58;;;17.33;;
19006;SDS011;9636;47.382;8.480;2022-12-04T11:56:57;32.73;;;15.73;;
19006;SDS011;9636;47.382;8.480;2022-12-04T11:59:30;31.80;;;15.60;;
19006;SDS011;9636;47.382;8.480;2022-12-04T12:02:01;29.90;;;15.10;;
19006;SDS011;9636;47.382;8.480;2022-12-04T12:04:35;31.40;;;15.13;;
19006;SDS011;9636;47.382;8.480;2022-12-04T12:07:10;30.30;;;15.90;;
19006;SDS011;9636;47.382;8.480;2022-12-04T12:09:42;27.07;;;14.57;;
19006;SDS011;9636;47.382;8.480;2022-12-04T12:12:13;27.60;;;14.70;;
19006;SDS011;9636;47.382;8.480;2022-12-04T12:14:47;28.83;;;14.93;;
19006;SDS011;9636;47.382;8.480;2022-12-04T12:17:21;29.27;;;14.27;;
19006;SDS011;9636;47.382;8.480;2022-12-04T12:19:56;26.80;;;14.40;;
19006;SDS011;9636;47.382;8.480;2022-12-04T12:22:27;29.67;;;14.40;;
19006;SDS011;9636;47.382;8.480;2022-12-04T12:24:58;28.03;;;14.83;;
19006;SDS011;9636;47.382;8.480;2022-12-04T12:30:16;26.37;;;14.27;;
19006;SDS011;9636;47.382;8.480;2022-12-04T12:32:53;23.13;;;13.37;;
19006;SDS011;9636;47.382;8.480;2022-12-04T12:35:24;22.77;;;13.67;;
19006;SDS011;9636;47.382;8.480;2022-12-04T12:37:54;25.60;;;13.90;;
19006;SDS011;9636;47.382;8.480;2022-12-04T12:40:25;26.97;;;14.47;;
19006;SDS011;9636;47.382;8.480;2022-12-04T12:42:54;26.27;;;13.47;;
19006;SDS011;9636;47.382;8.480;2022-12-04T12:45:25;24.47;;;13.87;;
19006;SDS011;9636;47.382;8.480;2022-12-04T12:47:55;23.83;;;13.73;;
19006;SDS011;9636;47.382;8.480;2022-12-04T12:50:26;27.87;;;13.80;;
19006;SDS011;9636;47.382;8.480;2022-12-04T12:52:55;26.13;;;14.13;;
19006;SDS011;9636;47.382;8.480;2022-12-04T12:55:25;22.60;;;12.90;;
19006;SDS011;9636;47.382;8.480;2022-12-04T12:57:55;23.80;;;13.53;;
19006;SDS011;9636;47.382;8.480;2022-12-04T13:00:27;25.13;;;13.67;;
19006;SDS011;9636;47.382;8.480;2022-12-04T13:02:57;25.90;;;13.50;;
19006;SDS011;9636;47.382;8.480;2022-12-04T13:05:26;23.13;;;13.03;;
19006;SDS011;9636;47.382;8.480;2022-12-04T13:07:57;26.07;;;13.90;;
19006;SDS011;9636;47.382;8.480;2022-12-04T13:10:27;24.43;;;13.03;;
19006;SDS011;9636;47.382;8.480;2022-12-04T13:12:58;22.83;;;12.90;;
19006;SDS011;9636;47.382;8.480;2022-12-04T13:15:30;23.10;;;12.57;;
19006;SDS011;9636;47.382;8.480;2022-12-04T13:17:59;21.83;;;12.30;;
19006;SDS011;9636;47.382;8.480;2022-12-04T13:20:27;20.03;;;12.40;;
19006;SDS011;9636;47.382;8.480;2022-12-04T13:23:00;22.03;;;12.10;;
19006;SDS011;9636;47.382;8.480;2022-12-04T13:25:34;24.80;;;13.47;;
19006;SDS011;9636;47.382;8.480;2022-12-04T13:28:05;23.20;;;13.40;;
19006;SDS011;9636;47.382;8.480;2022-12-04T13:30:41;23.10;;;13.23;;
19006;SDS011;9636;47.382;8.480;2022-12-04T13:36:14;20.20;;;11.77;;
19006;SDS011;9636;47.382;8.480;2022-12-04T13:38:50;22.40;;;12.50;;
19006;SDS011;9636;47.382;8.480;2022-12-04T13:41:20;21.00;;;12.90;;
19006;SDS011;9636;47.382;8.480;2022-12-04T13:43:48;22.87;;;12.97;;
19006;SDS011;9636;47.382;8.480;2022-12-04T13:46:24;23.90;;;12.13;;
19006;SDS011;9636;47.382;8.480;2022-12-04T13:48:53;19.97;;;12.07;;
19006;SDS011;9636;47.382;8.480;2022-12-04T13:51:22;20.90;;;12.10;;
19006;SDS011;9636;47.382;8.480;2022-12-04T13:53:59;22.70;;;12.10;;
19006;SDS011;9636;47.382;8.480;2022-12-04T13:56:27;20.83;;;11.57;;
19006;SDS011;9636;47.382;8.480;2022-12-04T13:58:59;22.70;;;12.67;;
19006;SDS011;9636;47.382;8.480;2022-12-04T14:01:29;20.27;;;12.23;;
19006;SDS011;9636;47.382;8.480;2022-12-04T14:04:00;21.77;;;12.63;;
19006;SDS011;9636;47.382;8.480;2022-12-04T14:06:29;18.73;;;11.20;;
19006;SDS011;9636;47.382;8.480;2022-12-04T14:09:00;20.80;;;11.53;;
19006;SDS011;9636;47.382;8.480;2022-12-04T14:11:28;19.90;;;11.37;;
19006;SDS011;9636;47.382;8.480;2022-12-04T14:13:59;20.07;;;11.60;;
19006;SDS011;9636;47.382;8.480;2022-12-04T14:16:28;20.77;;;11.27;;
19006;SDS011;9636;47.382;8.480;2022-12-04T14:18:58;19.20;;;11.53;;
19006;SDS011;9636;47.382;8.480;2022-12-04T14:21:25;18.83;;;10.77;;
19006;SDS011;9636;47.382;8.480;2022-12-04T14:24:12;18.77;;;11.40;;
19006;SDS011;9636;47.382;8.480;2022-12-04T14:26:46;21.93;;;11.87;;
19006;SDS011;9636;47.382;8.480;2022-12-04T14:29:29;18.23;;;11.00;;
19006;SDS011;9636;47.382;8.480;2022-12-04T14:31:59;20.43;;;11.20;;
19006;SDS011;9636;47.382;8.480;2022-12-04T14:34:33;17.83;;;11.07;;
19006;SDS011;9636;47.382;8.480;2022-12-04T14:37:01;20.80;;;11.37;;
19006;SDS011;9636;47.382;8.480;2022-12-04T14:39:30;18.20;;;11.10;;
19006;SDS011;9636;47.382;8.480;2022-12-04T14:42:05;18.83;;;11.27;;
19006;SDS011;9636;47.382;8.480;2022-12-04T14:44:33;18.87;;;11.10;;
19006;SDS011;9636;47.382;8.480;2022-12-04T14:47:03;18.50;;;10.70;;
19006;SDS011;9636;47.382;8.480;2022-12-04T14:49:37;19.60;;;11.30;;
19006;SDS011;9636;47.382;8.480;2022-12-04T14:52:08;19.80;;;11.43;;
19006;SDS011;9636;47.382;8.480;2022-12-04T14:54:39;19.70;;;10.23;;
19006;SDS011;9636;47.382;8.480;2022-12-04T14:57:17;15.97;;;10.63;;
19006;SDS011;9636;47.382;8.480;2022-12-04T14:59:47;18.77;;;11.20;;
19006;SDS011;9636;47.382;8.480;2022-12-04T15:02:16;17.10;;;10.53;;
19006;SDS011;9636;47.382;8.480;2022-12-04T15:04:46;16.80;;;10.87;;
19006;SDS011;9636;47.382;8.480;2022-12-04T15:07:17;21.83;;;11.33;;
19006;SDS011;9636;47.382;8.480;2022-12-04T15:09:52;15.67;;;10.80;;
19006;SDS011;9636;47.382;8.480;2022-12-04T15:12:41;15.63;;;10.23;;
19006;SDS011;9636;47.382;8.480;2022-12-04T15:15:12;18.47;;;10.63;;